createdAt,value
2016-11-18T00:00:20.344Z,1.71
2016-11-18T00:01:20.327Z,1.79
2016-11-18T00:02:20.322Z,1.71
2016-11-18T00:03:20.281Z,1.65
2016-11-18T00:04:20.292Z,1.44
2016-11-18T00:05:20.591Z,1.53
2016-11-18T00:06:20.261Z,1.61
2016-11-18T00:07:20.242Z,1.49
2016-11-18T00:08:20.226Z,1.68
2016-11-18T00:09:20.206Z,1.72
2016-11-18T00:10:20.195Z,1.95
2016-11-18T00:11:20.181Z,1.93
2016-11-18T00:12:20.157Z,2
2016-11-18T00:13:20.150Z,1.82
2016-11-18T00:14:20.135Z,1.71
2016-11-18T00:15:20.138Z,1.6
2016-11-18T00:16:20.097Z,1.49
2016-11-18T00:17:20.106Z,1.5
2016-11-18T00:18:20.082Z,1.5
2016-11-18T00:19:20.054Z,1.61
2016-11-18T00:20:20.071Z,1.72
2016-11-18T00:21:20.028Z,1.75
2016-11-18T00:22:20.322Z,1.61
2016-11-18T00:23:19.993Z,1.6
2016-11-18T00:24:20.028Z,1.64
2016-11-18T00:25:19.975Z,2.01
2016-11-18T00:26:19.977Z,2.2
2016-11-18T00:27:19.951Z,2.07
2016-11-18T00:28:19.932Z,2
2016-11-18T00:29:19.902Z,1.86
2016-11-18T00:30:19.912Z,1.71
2016-11-18T00:31:19.893Z,1.81
2016-11-18T00:32:19.877Z,1.79
2016-11-18T00:33:19.857Z,1.9
2016-11-18T00:34:19.828Z,1.85
2016-11-18T00:35:19.825Z,1.79
2016-11-18T00:36:19.817Z,1.7
2016-11-18T00:37:19.820Z,1.65
2016-11-18T00:38:19.784Z,1.85
2016-11-18T00:39:19.790Z,1.93
2016-11-18T00:40:19.768Z,2.11
2016-11-18T00:41:19.737Z,2.29
2016-11-18T00:42:19.744Z,2.25
2016-11-18T00:43:19.713Z,2.23
2016-11-18T00:44:19.691Z,2.18
2016-11-18T00:45:19.701Z,1.93
2016-11-18T00:46:19.673Z,1.85
2016-11-18T00:47:19.650Z,1.88
2016-11-18T00:48:19.632Z,1.92
2016-11-18T00:49:19.606Z,1.83
2016-11-18T00:50:19.611Z,1.79
2016-11-18T00:51:19.581Z,1.64
2016-11-18T00:52:19.576Z,1.65
2016-11-18T00:53:19.553Z,1.6
2016-11-18T00:54:19.565Z,1.71
2016-11-18T00:55:19.530Z,1.65
2016-11-18T00:56:19.533Z,1.7
2016-11-18T00:57:19.501Z,1.46
2016-11-18T00:58:19.484Z,1.42
2016-11-18T00:59:19.482Z,1.21
2016-11-18T01:00:19.468Z,1.11
2016-11-18T01:01:19.448Z,1.21
2016-11-18T01:02:19.433Z,1.25
2016-11-18T01:03:19.403Z,1.25
2016-11-18T01:04:19.395Z,1.13
2016-11-18T01:05:19.387Z,1.14
2016-11-18T01:06:19.364Z,1.13
2016-11-18T01:07:19.371Z,1.11
2016-11-18T01:08:19.342Z,1.17
2016-11-18T01:09:19.311Z,1.29
2016-11-18T01:10:19.312Z,1.47
2016-11-18T01:11:19.299Z,1.39
2016-11-18T01:12:19.279Z,1.39
2016-11-18T01:13:19.270Z,1.61
2016-11-18T01:14:19.229Z,1.63
2016-11-18T01:15:19.251Z,1.63
2016-11-18T01:16:19.229Z,1.7
2016-11-18T01:17:19.203Z,1.6
2016-11-18T01:18:19.175Z,1.43
2016-11-18T01:19:19.178Z,1.35
2016-11-18T01:20:19.167Z,1.43
2016-11-18T01:21:19.154Z,1.44
2016-11-18T01:22:19.140Z,1.65
2016-11-18T01:23:19.092Z,1.81
2016-11-18T01:24:19.099Z,1.81
2016-11-18T01:25:19.095Z,1.89
2016-11-18T01:26:19.065Z,2
2016-11-18T01:27:19.039Z,1.85
2016-11-18T01:28:19.019Z,1.67
2016-11-18T01:29:19.014Z,1.6
2016-11-18T01:30:18.996Z,1.5
2016-11-18T01:31:18.987Z,1.38
2016-11-18T01:32:18.967Z,1.47
2016-11-18T01:33:18.958Z,1.65
2016-11-18T01:34:18.936Z,1.6
2016-11-18T01:35:18.942Z,1.9
2016-11-18T01:36:18.894Z,1.95
2016-11-18T01:37:18.915Z,1.86
2016-11-18T01:38:18.868Z,1.65
2016-11-18T01:39:18.877Z,1.6
2016-11-18T01:40:18.851Z,1.49
2016-11-18T01:41:18.832Z,1.38
2016-11-18T01:42:18.819Z,1.24
2016-11-18T01:43:18.799Z,1.24
2016-11-18T01:44:18.790Z,1.14
2016-11-18T01:45:18.783Z,1.16
2016-11-18T01:46:18.748Z,1.18
2016-11-18T01:47:18.739Z,1.13
2016-11-18T01:48:18.732Z,1.06
2016-11-18T01:49:18.720Z,1.02
2016-11-18T01:50:18.698Z,1.02
2016-11-18T01:51:18.702Z,0.95
2016-11-18T01:52:18.648Z,0.92
2016-11-18T01:53:18.650Z,0.84
2016-11-18T01:54:18.633Z,1.06
2016-11-18T01:55:18.629Z,0.92
2016-11-18T01:56:18.606Z,0.95
2016-11-18T01:57:18.599Z,0.89
2016-11-18T01:58:18.571Z,0.82
2016-11-18T01:59:18.552Z,0.82
2016-11-18T02:00:18.565Z,0.84
2016-11-18T02:01:18.508Z,0.57
2016-11-18T02:02:18.499Z,0.48
2016-11-18T02:03:18.512Z,0.48
2016-11-18T02:04:18.484Z,0.51
2016-11-18T02:05:18.467Z,0.4
2016-11-18T02:06:18.465Z,0.33
2016-11-18T02:07:18.433Z,0.4
2016-11-18T02:08:18.425Z,0.49
2016-11-18T02:09:18.397Z,0.37
2016-11-18T02:10:18.387Z,0.3
2016-11-18T02:11:18.372Z,0.22
2016-11-18T02:12:18.346Z,0.12
2016-11-18T02:13:18.331Z,0.13
2016-11-18T02:14:18.316Z,0.12
2016-11-18T02:15:18.304Z,0.08
2016-11-18T02:16:18.282Z,0.08
2016-11-18T02:17:18.258Z,0.04
2016-11-18T02:18:18.261Z,-0.01
2016-11-18T02:19:18.226Z,-0.13
2016-11-18T02:20:18.233Z,-0.08
2016-11-18T02:21:18.200Z,-0.13
2016-11-18T02:22:18.191Z,-0.16
2016-11-18T02:23:18.166Z,-0.34
2016-11-18T02:24:18.174Z,-0.3
2016-11-18T02:25:18.156Z,-0.41
2016-11-18T02:26:18.103Z,-0.34
2016-11-18T02:27:18.119Z,-0.39
2016-11-18T02:28:18.085Z,-0.42
2016-11-18T02:29:18.068Z,-0.47
2016-11-18T02:30:18.058Z,-0.5
2016-11-18T02:31:18.022Z,-0.5
2016-11-18T02:32:18.015Z,-0.65
2016-11-18T02:33:17.999Z,-0.74
2016-11-18T02:34:17.993Z,-0.76
2016-11-18T02:35:17.963Z,-0.71
2016-11-18T02:36:17.941Z,-0.67
2016-11-18T02:37:17.942Z,-0.53
2016-11-18T02:38:17.918Z,-0.59
2016-11-18T02:39:17.899Z,-0.74
2016-11-18T02:40:17.875Z,-0.81
2016-11-18T02:41:17.884Z,-0.73
2016-11-18T02:42:17.855Z,-0.78
2016-11-18T02:43:17.847Z,-0.74
2016-11-18T02:44:17.812Z,-0.78
2016-11-18T02:45:17.799Z,-0.78
2016-11-18T02:46:17.802Z,-0.77
2016-11-18T02:47:17.777Z,-0.58
2016-11-18T02:48:17.767Z,-0.5
2016-11-18T02:49:17.737Z,-0.45
2016-11-18T02:50:17.724Z,-0.59
2016-11-18T02:51:17.691Z,-0.5
2016-11-18T02:52:17.666Z,-0.59
2016-11-18T02:53:17.647Z,-0.68
2016-11-18T02:54:17.659Z,-0.71
2016-11-18T02:55:17.629Z,-0.65
2016-11-18T02:56:17.613Z,-0.58
2016-11-18T02:57:17.588Z,-0.44
2016-11-18T02:58:17.584Z,-0.52
2016-11-18T02:59:17.551Z,-0.6
2016-11-18T03:00:17.558Z,-0.81
2016-11-18T03:01:17.526Z,-0.95
2016-11-18T03:02:17.495Z,-0.9
2016-11-18T03:03:17.501Z,-0.86
2016-11-18T03:04:17.461Z,-0.97
2016-11-18T03:05:17.446Z,-1.02
2016-11-18T03:06:17.449Z,-1
2016-11-18T03:07:17.448Z,-0.99
2016-11-18T03:08:17.407Z,-0.9
2016-11-18T03:09:17.376Z,-0.99
2016-11-18T03:10:17.394Z,-0.97
2016-11-18T03:11:17.357Z,-1.03
2016-11-18T03:12:17.366Z,-1.2
2016-11-18T03:13:17.320Z,-1.33
2016-11-18T03:14:17.313Z,-1.29
2016-11-18T03:15:17.286Z,-1.36
2016-11-18T03:16:17.267Z,-1.1
2016-11-18T03:17:17.240Z,-0.93
2016-11-18T03:18:17.228Z,-1.1
2016-11-18T03:19:17.225Z,-1.05
2016-11-18T03:20:17.204Z,-1.14
2016-11-18T03:21:17.165Z,-1.1
2016-11-18T03:22:17.163Z,-0.97
2016-11-18T03:23:17.146Z,-1.08
2016-11-18T03:24:17.139Z,-1.26
2016-11-18T03:25:17.109Z,-1.17
2016-11-18T03:26:17.104Z,-1.23
2016-11-18T03:27:17.067Z,-1.35
2016-11-18T03:28:17.081Z,-1.32
2016-11-18T03:29:17.034Z,-1.32
2016-11-18T03:30:17.030Z,-1.38
2016-11-18T03:31:17.002Z,-1.46
2016-11-18T03:32:17.027Z,-1.39
2016-11-18T03:33:16.966Z,-1.33
2016-11-18T03:34:16.949Z,-1.1
2016-11-18T03:35:16.940Z,-0.97
2016-11-18T03:36:16.927Z,-0.97
2016-11-18T03:37:16.895Z,-1.13
2016-11-18T03:38:16.889Z,-0.99
2016-11-18T03:39:16.857Z,-1.13
2016-11-18T03:40:16.883Z,-1.26
2016-11-18T03:41:16.818Z,-1.32
2016-11-18T03:42:16.788Z,-1.38
2016-11-18T03:43:16.795Z,-1.35
2016-11-18T03:44:16.770Z,-1.29
2016-11-18T03:45:16.759Z,-1.46
2016-11-18T03:46:16.744Z,-1.5
2016-11-18T03:47:16.708Z,-1.62
2016-11-18T03:48:16.694Z,-1.62
2016-11-18T03:49:16.703Z,-1.75
2016-11-18T03:50:16.663Z,-1.67
2016-11-18T03:51:16.666Z,-1.74
2016-11-18T03:52:16.677Z,-1.72
2016-11-18T03:53:17.243Z,-1.71
2016-11-18T03:54:16.578Z,-1.61
2016-11-18T03:55:16.591Z,-1.65
2016-11-18T03:56:16.560Z,-1.72
2016-11-18T03:57:16.561Z,-1.72
2016-11-18T03:58:16.542Z,-1.86
2016-11-18T03:59:16.492Z,-1.89
2016-11-18T04:00:16.481Z,-2.03
2016-11-18T04:01:16.449Z,-2.07
2016-11-18T04:02:16.447Z,-1.92
2016-11-18T04:03:16.437Z,-1.95
2016-11-18T04:04:16.405Z,-1.95
2016-11-18T04:05:16.387Z,-1.95
2016-11-18T04:06:16.356Z,-2.11
2016-11-18T04:07:16.358Z,-2.07
2016-11-18T04:08:16.331Z,-1.92
2016-11-18T04:09:16.317Z,-2.08
2016-11-18T04:10:16.317Z,-1.92
2016-11-18T04:11:16.277Z,-1.96
2016-11-18T04:12:16.248Z,-2.06
2016-11-18T04:13:16.239Z,-2.01
2016-11-18T04:14:16.223Z,-1.92
2016-11-18T04:15:16.226Z,-1.88
2016-11-18T04:16:16.196Z,-1.88
2016-11-18T04:17:16.170Z,-1.95
2016-11-18T04:18:16.134Z,-1.96
2016-11-18T04:19:16.137Z,-1.92
2016-11-18T04:20:16.106Z,-1.92
2016-11-18T04:21:16.082Z,-1.74
2016-11-18T04:22:16.094Z,-1.78
2016-11-18T04:23:16.057Z,-1.88
2016-11-18T04:24:16.041Z,-1.78
2016-11-18T04:25:16.027Z,-1.74
2016-11-18T04:26:16.004Z,-1.74
2016-11-18T04:27:15.999Z,-1.72
2016-11-18T04:28:16.004Z,-1.51
2016-11-18T04:29:15.965Z,-1.56
2016-11-18T04:30:15.941Z,-1.7
2016-11-18T04:31:15.904Z,-1.64
2016-11-18T04:32:15.900Z,-1.56
2016-11-18T04:33:15.891Z,-1.54
2016-11-18T04:34:15.844Z,-1.62
2016-11-18T04:35:15.845Z,-1.57
2016-11-18T04:36:15.827Z,-1.68
2016-11-18T04:37:15.810Z,-1.8
2016-11-18T04:38:15.792Z,-1.71
2016-11-18T04:39:15.796Z,-1.75
2016-11-18T04:40:15.767Z,-1.75
2016-11-18T04:41:15.751Z,-1.78
2016-11-18T04:42:15.709Z,-1.75
2016-11-18T04:43:15.688Z,-1.64
2016-11-18T04:44:15.673Z,-1.61
2016-11-18T04:45:15.669Z,-1.7
2016-11-18T04:46:15.630Z,-1.67
2016-11-18T04:47:15.623Z,-1.72
2016-11-18T04:48:15.602Z,-1.68
2016-11-18T04:49:15.603Z,-1.65
2016-11-18T04:50:15.580Z,-1.59
2016-11-18T04:51:15.563Z,-1.65
2016-11-18T04:52:15.527Z,-1.68
2016-11-18T04:53:15.500Z,-1.75
2016-11-18T04:54:15.511Z,-1.88
2016-11-18T04:55:15.476Z,-1.71
2016-11-18T04:56:15.444Z,-1.68
2016-11-18T04:57:15.435Z,-1.75
2016-11-18T04:58:15.408Z,-1.89
2016-11-18T04:59:15.425Z,-1.89
2016-11-18T05:00:15.405Z,-1.8
2016-11-18T05:01:15.368Z,-1.88
2016-11-18T05:02:15.354Z,-1.86
2016-11-18T05:03:15.343Z,-1.82
2016-11-18T05:04:15.327Z,-1.88
2016-11-18T05:05:15.311Z,-1.88
2016-11-18T05:06:15.265Z,-1.9
2016-11-18T05:07:15.283Z,-1.92
2016-11-18T05:08:15.256Z,-1.74
2016-11-18T05:09:15.230Z,-1.67
2016-11-18T05:10:15.206Z,-1.49
2016-11-18T05:11:15.193Z,-1.39
2016-11-18T05:12:15.169Z,-1.44
2016-11-18T05:13:15.156Z,-1.53
2016-11-18T05:14:15.130Z,-1.54
2016-11-18T05:15:15.115Z,-1.59
2016-11-18T05:16:15.149Z,-1.41
2016-11-18T05:17:15.411Z,-1.39
2016-11-18T05:18:15.056Z,-1.38
2016-11-18T05:19:15.048Z,-1.44
2016-11-18T05:20:15.026Z,-1.53
2016-11-18T05:21:15.027Z,-1.61
2016-11-18T05:22:14.983Z,-1.56
2016-11-18T05:23:14.972Z,-1.5
2016-11-18T05:24:14.975Z,-1.39
2016-11-18T05:25:14.945Z,-1.33
2016-11-18T05:26:14.945Z,-1.32
2016-11-18T05:27:14.906Z,-1.33
2016-11-18T05:28:14.891Z,-1.43
2016-11-18T05:29:14.868Z,-1.33
2016-11-18T05:30:14.868Z,-1.33
2016-11-18T05:31:14.830Z,-1.28
2016-11-18T05:32:14.814Z,-1.31
2016-11-18T05:33:14.791Z,-1.41
2016-11-18T05:34:14.769Z,-1.38
2016-11-18T05:35:14.760Z,-1.41
2016-11-18T05:36:14.759Z,-1.28
2016-11-18T05:37:14.739Z,-1.25
2016-11-18T05:38:14.706Z,-1.32
2016-11-18T05:39:14.736Z,-1.25
2016-11-18T05:40:14.681Z,-1.31
2016-11-18T05:41:14.640Z,-1.33
2016-11-18T05:42:14.634Z,-1.23
2016-11-18T05:43:14.621Z,-1.17
2016-11-18T05:44:14.594Z,-1.17
2016-11-18T05:45:14.581Z,-1.18
2016-11-18T05:46:14.569Z,-1.18
2016-11-18T05:47:14.558Z,-1.2
2016-11-18T05:48:14.548Z,-1.25
2016-11-18T05:49:14.519Z,-1.23
2016-11-18T05:50:14.510Z,-0.97
2016-11-18T05:51:14.481Z,-1
2016-11-18T05:52:14.470Z,-1.11
2016-11-18T05:53:14.441Z,-1.2
2016-11-18T05:54:14.428Z,-1.11
2016-11-18T05:55:14.392Z,-1.11
2016-11-18T05:56:14.380Z,-1.28
2016-11-18T05:57:14.378Z,-1.15
2016-11-18T05:58:14.365Z,-1.18
2016-11-18T06:00:18.523Z,-1.23
2016-11-18T06:01:05.498Z,-1.25
2016-11-18T06:01:59.192Z,-1.33
2016-11-18T06:02:59.172Z,-1.17
2016-11-18T06:03:59.165Z,-1.29
2016-11-18T06:04:59.140Z,-1.33
2016-11-18T06:05:59.124Z,-1.29
2016-11-18T06:06:59.107Z,-1.38
2016-11-18T06:07:59.120Z,-1.23
2016-11-18T06:08:59.103Z,-1.29
2016-11-18T06:09:59.049Z,-1.07
2016-11-18T06:10:59.031Z,-0.97
2016-11-18T06:11:59.014Z,-0.97
2016-11-18T06:12:59.000Z,-1.11
2016-11-18T06:13:58.978Z,-1.14
2016-11-18T06:14:58.960Z,-1.15
2016-11-18T06:15:58.966Z,-1.15
2016-11-18T06:16:58.926Z,-1.11
2016-11-18T06:17:58.915Z,-1.13
2016-11-18T06:18:58.927Z,-1.21
2016-11-18T06:19:58.898Z,-1.15
2016-11-18T06:20:58.907Z,-1.35
2016-11-18T06:21:58.873Z,-1.67
2016-11-18T06:22:58.843Z,-1.78
2016-11-18T06:23:58.857Z,-1.8
2016-11-18T06:24:58.808Z,-1.75
2016-11-18T06:25:58.784Z,-1.65
2016-11-18T06:26:58.767Z,-1.65
2016-11-18T06:27:58.749Z,-1.72
2016-11-18T06:28:58.751Z,-1.83
2016-11-18T06:29:58.717Z,-1.88
2016-11-18T06:30:58.731Z,-2.06
2016-11-18T06:31:58.710Z,-1.89
2016-11-18T06:32:58.661Z,-1.54
2016-11-18T06:33:58.630Z,-1.23
2016-11-18T06:34:58.639Z,-0.95
2016-11-18T06:35:58.602Z,-0.97
2016-11-18T06:36:58.647Z,-1.02
2016-11-18T06:37:58.599Z,-1.17
2016-11-18T06:38:58.584Z,-1.02
2016-11-18T06:39:58.559Z,-0.96
2016-11-18T06:40:58.515Z,-0.81
2016-11-18T06:41:58.508Z,-0.86
2016-11-18T06:42:58.486Z,-0.9
2016-11-18T06:43:58.455Z,-0.95
2016-11-18T06:44:58.470Z,-0.8
2016-11-18T06:45:58.459Z,-0.76
2016-11-18T06:46:58.420Z,-0.8
2016-11-18T06:47:58.728Z,-0.8
2016-11-18T06:48:58.368Z,-0.71
2016-11-18T06:49:58.686Z,-0.53
2016-11-18T06:50:58.357Z,-0.41
2016-11-18T06:51:58.339Z,-0.21
2016-11-18T06:52:58.324Z,-0.49
2016-11-18T06:53:58.300Z,-0.41
2016-11-18T06:54:58.273Z,-0.44
2016-11-18T06:55:58.277Z,-0.38
2016-11-18T06:56:58.236Z,-0.24
2016-11-18T06:57:58.223Z,-0.55
2016-11-18T06:58:58.208Z,-0.55
2016-11-18T06:59:58.185Z,-0.39
2016-11-18T07:00:58.168Z,-0.24
2016-11-18T07:01:58.172Z,-0.03
2016-11-18T07:02:58.136Z,-0.17
2016-11-18T07:03:58.109Z,0.15
2016-11-18T07:04:58.108Z,0.16
2016-11-18T07:05:58.105Z,0.07
2016-11-18T07:06:58.100Z,0.19
2016-11-18T07:07:58.062Z,0.48
2016-11-18T07:08:58.036Z,0.78
2016-11-18T07:09:58.030Z,0.52
2016-11-18T07:10:57.984Z,0.38
2016-11-18T07:11:57.984Z,-0.06
2016-11-18T07:12:57.965Z,-0.05
2016-11-18T07:13:57.943Z,-0.05
2016-11-18T07:14:57.952Z,0.25
2016-11-18T07:15:57.911Z,0.51
2016-11-18T07:16:57.894Z,0.72
2016-11-18T07:17:57.903Z,0.33
2016-11-18T07:18:57.870Z,-0.34
2016-11-18T07:19:57.854Z,0.08
2016-11-18T07:20:57.834Z,0.63
2016-11-18T07:21:57.833Z,0.49
2016-11-18T07:22:57.800Z,0.37
2016-11-18T07:23:57.792Z,0.16
2016-11-18T07:24:57.778Z,0.35
2016-11-18T07:25:57.746Z,0.81
2016-11-18T07:26:57.752Z,0.95
2016-11-18T07:27:57.750Z,0.7
2016-11-18T07:28:57.699Z,0.48
2016-11-18T07:29:57.688Z,-0.14
2016-11-18T07:30:57.658Z,-0.13
2016-11-18T07:31:57.669Z,0.17
2016-11-18T07:32:57.627Z,0.28
2016-11-18T07:33:57.616Z,0.63
2016-11-18T07:34:57.606Z,0.81
2016-11-18T07:35:57.597Z,0.95
2016-11-18T07:36:57.577Z,0.8
2016-11-18T07:37:57.571Z,0.23
2016-11-18T07:38:57.548Z,0.1
2016-11-18T07:39:57.551Z,-0.12
2016-11-18T07:40:57.518Z,0.12
2016-11-18T07:41:57.501Z,0.28
2016-11-18T07:42:57.486Z,0.13
2016-11-18T07:43:57.466Z,0.31
2016-11-18T07:44:57.427Z,0.52
2016-11-18T07:45:57.449Z,1.08
2016-11-18T07:46:57.435Z,0.82
2016-11-18T07:47:57.395Z,1.24
2016-11-18T07:48:57.378Z,1.13
2016-11-18T07:49:57.365Z,0.75
2016-11-18T07:50:57.369Z,1.11
2016-11-18T07:51:57.371Z,1.39
2016-11-18T07:52:57.307Z,1.25
2016-11-18T07:53:57.282Z,1.26
2016-11-18T07:54:57.270Z,1.49
2016-11-18T07:55:57.252Z,1.72
2016-11-18T07:56:57.250Z,1.85
2016-11-18T07:57:57.235Z,1.6
2016-11-18T07:58:57.211Z,1.14
2016-11-18T07:59:57.195Z,0.92
2016-11-18T08:00:57.187Z,1
2016-11-18T08:01:57.186Z,0.82
2016-11-18T08:02:57.143Z,1
2016-11-18T08:03:57.159Z,1.71
2016-11-18T08:04:57.136Z,1.49
2016-11-18T08:05:57.114Z,0.95
2016-11-18T08:06:57.083Z,0.6
2016-11-18T08:07:57.100Z,0.7
2016-11-18T08:08:57.063Z,1.1
2016-11-18T08:09:57.049Z,0.8
2016-11-18T08:10:57.039Z,0.13
2016-11-18T08:11:57.056Z,0.19
2016-11-18T08:12:57.001Z,0.2
2016-11-18T08:13:56.990Z,0.3
2016-11-18T08:14:56.968Z,0.26
2016-11-18T08:15:56.956Z,0.45
2016-11-18T08:16:56.935Z,1.02
2016-11-18T08:17:56.926Z,0.75
2016-11-18T08:18:56.907Z,1.14
2016-11-18T08:19:56.888Z,0.67
2016-11-18T08:20:56.892Z,0.62
2016-11-18T08:21:56.859Z,0.17
2016-11-18T08:22:56.824Z,0.25
2016-11-18T08:23:56.848Z,-0.03
2016-11-18T08:24:56.809Z,-0.3
2016-11-18T08:25:56.806Z,-0.16
2016-11-18T08:26:56.781Z,0.2
2016-11-18T08:27:56.749Z,0.13
2016-11-18T08:28:56.735Z,-0.14
2016-11-18T08:29:56.746Z,-0.35
2016-11-18T08:30:56.709Z,-0.77
2016-11-18T08:31:56.687Z,-0.78
2016-11-18T08:32:56.675Z,-0.5
2016-11-18T08:33:56.666Z,-0.27
2016-11-18T08:34:56.651Z,-0.3
2016-11-18T08:35:56.679Z,-0.41
2016-11-18T08:36:56.624Z,-0.52
2016-11-18T08:37:56.588Z,-0.56
2016-11-18T08:38:56.585Z,-0.89
2016-11-18T08:39:56.567Z,-1.02
2016-11-18T08:40:56.539Z,-0.83
2016-11-18T08:41:56.539Z,-0.93
2016-11-18T08:42:56.505Z,-1.35
2016-11-18T08:43:56.485Z,-1.5
2016-11-18T08:44:56.469Z,-1.36
2016-11-18T08:45:56.466Z,-1.32
2016-11-18T08:46:56.439Z,-1.2
2016-11-18T08:47:56.422Z,-1.35
2016-11-18T08:48:56.413Z,-1.11
2016-11-18T08:49:56.401Z,-1.44
2016-11-18T08:50:56.382Z,-1.41
2016-11-18T08:51:56.370Z,-1.18
2016-11-18T08:52:56.334Z,-1.14
2016-11-18T08:53:56.309Z,-1.11
2016-11-18T08:54:56.308Z,-1.18
2016-11-18T08:55:56.290Z,-0.89
2016-11-18T08:56:56.272Z,-0.73
2016-11-18T08:57:56.268Z,-0.7
2016-11-18T08:58:56.245Z,-0.89
2016-11-18T08:59:56.222Z,-0.85
2016-11-18T09:00:56.181Z,-0.5
2016-11-18T09:01:56.177Z,-0.39
2016-11-18T09:02:56.154Z,-0.24
2016-11-18T09:03:56.230Z,-0.55
2016-11-18T09:04:56.131Z,-0.71
2016-11-18T09:05:56.107Z,-0.44
2016-11-18T09:06:56.090Z,-0.09
2016-11-18T09:07:56.059Z,-0.6
2016-11-18T09:08:56.067Z,-0.52
2016-11-18T09:09:56.047Z,-0.45
2016-11-18T09:10:56.029Z,-0.27
2016-11-18T09:11:56.026Z,-0.55
2016-11-18T09:12:55.996Z,-0.26
2016-11-18T09:13:55.996Z,-0.55
2016-11-18T09:14:55.975Z,-0.5
2016-11-18T09:15:55.929Z,-0.35
2016-11-18T09:16:55.940Z,-0.34
2016-11-18T09:17:55.894Z,-0.83
2016-11-18T09:18:55.909Z,-0.78
2016-11-18T09:19:55.890Z,-0.76
2016-11-18T09:20:55.851Z,-0.9
2016-11-18T09:21:55.858Z,-0.76
2016-11-18T09:22:55.811Z,-0.92
2016-11-18T09:23:55.806Z,-0.68
2016-11-18T09:24:55.769Z,-0.68
2016-11-18T09:25:55.778Z,-0.44
2016-11-18T09:26:55.752Z,-0.47
2016-11-18T09:27:55.728Z,-0.27
2016-11-18T09:28:55.737Z,-0.27
2016-11-18T09:29:55.712Z,-0.56
2016-11-18T09:30:55.671Z,-0.65
2016-11-18T09:31:55.673Z,-0.37
2016-11-18T09:32:55.634Z,0.02
2016-11-18T09:33:55.634Z,-0.17
2016-11-18T09:34:55.617Z,-0.47
2016-11-18T09:35:55.588Z,-0.53
2016-11-18T09:36:55.589Z,-0.97
2016-11-18T09:37:55.580Z,-0.89
2016-11-18T09:38:55.545Z,-0.7
2016-11-18T09:39:55.517Z,-0.58
2016-11-18T09:40:55.531Z,-0.44
2016-11-18T09:41:55.511Z,-0.32
2016-11-18T09:42:55.480Z,0.12
2016-11-18T09:43:55.444Z,0.74
2016-11-18T09:44:55.431Z,0.64
2016-11-18T09:45:55.412Z,0.49
2016-11-18T09:46:55.410Z,0.74
2016-11-18T09:47:55.749Z,0.48
2016-11-18T09:48:55.371Z,0.74
2016-11-18T09:49:55.362Z,0.41
2016-11-18T09:50:55.355Z,0.31
2016-11-18T09:51:55.328Z,0.7
2016-11-18T09:52:55.309Z,1.11
2016-11-18T09:53:55.307Z,1.36
2016-11-18T09:54:55.296Z,1.5
2016-11-18T09:55:55.261Z,1.11
2016-11-18T09:56:55.238Z,0.16
2016-11-18T09:57:55.239Z,0.75
2016-11-18T09:58:55.200Z,0.92
2016-11-18T09:59:55.187Z,0.77
2016-11-18T10:00:55.174Z,1.08
2016-11-18T10:01:55.178Z,0.75
2016-11-18T10:02:55.140Z,0.9
2016-11-18T10:03:55.123Z,0.86
2016-11-18T10:04:55.111Z,0.96
2016-11-18T10:05:55.115Z,0.45
2016-11-18T10:06:55.075Z,-0.02
2016-11-18T10:07:55.080Z,0.04
2016-11-18T10:08:55.068Z,0.17
2016-11-18T10:09:55.036Z,-0.01
2016-11-18T10:10:55.020Z,0.15
2016-11-18T10:11:55.003Z,0.07
2016-11-18T10:12:54.986Z,-0.31
2016-11-18T10:13:54.977Z,-0.26
2016-11-18T10:14:54.950Z,-0.13
2016-11-18T10:15:54.919Z,-0.13
2016-11-18T10:16:54.918Z,0.01
2016-11-18T10:17:54.897Z,0.19
2016-11-18T10:18:54.878Z,0.12
2016-11-18T10:19:54.861Z,-0.39
2016-11-18T10:20:54.859Z,-0.23
2016-11-18T10:21:54.839Z,-0.24
2016-11-18T10:22:54.816Z,-0.21
2016-11-18T10:23:54.803Z,-0.3
2016-11-18T10:24:54.781Z,-0.24
2016-11-18T10:25:54.751Z,-0.14
2016-11-18T10:26:55.049Z,-0.12
2016-11-18T10:27:54.739Z,-0.34
2016-11-18T10:28:54.699Z,-0.31
2016-11-18T10:29:54.709Z,-0.39
2016-11-18T10:30:54.677Z,-0.9
2016-11-18T10:31:54.670Z,-0.5
2016-11-18T10:32:54.633Z,-0.42
2016-11-18T10:33:54.632Z,-0.14
2016-11-18T10:34:54.603Z,0.02
2016-11-18T10:35:54.618Z,0.16
2016-11-18T10:36:54.595Z,0.2
2016-11-18T10:37:54.545Z,0.3
2016-11-18T10:38:54.550Z,0.34
2016-11-18T10:39:54.525Z,0.31
2016-11-18T10:40:54.530Z,0.2
2016-11-18T10:41:54.506Z,-0.31
2016-11-18T10:42:54.465Z,0.22
2016-11-18T10:43:54.466Z,0.02
2016-11-18T10:44:54.441Z,-0.03
2016-11-18T10:45:54.433Z,0.44
2016-11-18T10:46:54.430Z,-0.03
2016-11-18T10:47:54.392Z,-0.31
2016-11-18T10:48:54.363Z,-0.49
2016-11-18T10:49:54.364Z,-0.05
2016-11-18T10:50:54.349Z,0.63
2016-11-18T10:51:54.351Z,1.31
2016-11-18T10:52:54.312Z,1.85
2016-11-18T10:53:54.313Z,1.28
2016-11-18T10:54:54.280Z,0.63
2016-11-18T10:55:54.259Z,0.63
2016-11-18T10:56:54.642Z,1.02
2016-11-18T10:57:54.248Z,0.53
2016-11-18T10:58:54.210Z,0.8
2016-11-18T10:59:54.193Z,0.74
2016-11-18T11:00:54.183Z,0.44
2016-11-18T11:01:54.165Z,0.82
2016-11-18T11:02:54.130Z,1.24
2016-11-18T11:03:54.152Z,0.9
2016-11-18T11:04:54.114Z,0.89
2016-11-18T11:05:54.108Z,0.9
2016-11-18T11:06:54.090Z,0.37
2016-11-18T11:07:54.091Z,0.19
2016-11-18T11:08:54.048Z,0.05
2016-11-18T11:09:54.036Z,0.12
2016-11-18T11:10:54.026Z,0.19
2016-11-18T11:11:53.998Z,0.48
2016-11-18T11:12:53.975Z,0.52
2016-11-18T11:13:53.958Z,0.2
2016-11-18T11:14:53.953Z,0.25
2016-11-18T11:15:53.944Z,0.44
2016-11-18T11:16:53.944Z,0.63
2016-11-18T11:17:53.926Z,0.49
2016-11-18T11:18:53.887Z,0.38
2016-11-18T11:19:53.881Z,0.23
2016-11-18T11:20:53.871Z,0.4
2016-11-18T11:21:53.847Z,0.57
2016-11-18T11:22:53.812Z,0.59
2016-11-18T11:23:53.819Z,0.44
2016-11-18T11:24:53.811Z,0.45
2016-11-18T11:25:53.797Z,0.51
2016-11-18T11:26:53.766Z,0.35
2016-11-18T11:27:53.753Z,0.49
2016-11-18T11:28:53.715Z,0.45
2016-11-18T11:29:53.711Z,0.44
2016-11-18T11:30:53.685Z,0.33
2016-11-18T11:31:53.688Z,0.23
2016-11-18T11:32:53.669Z,0.26
2016-11-18T11:33:53.658Z,0.33
2016-11-18T11:34:53.618Z,0.2
2016-11-18T11:35:53.637Z,0.08
2016-11-18T11:36:53.599Z,0.2
2016-11-18T11:37:53.594Z,0.08
2016-11-18T11:38:53.583Z,0.22
2016-11-18T11:39:53.541Z,0.28
2016-11-18T11:40:53.546Z,0.33
2016-11-18T11:41:53.518Z,0.4
2016-11-18T11:42:53.503Z,0.35
2016-11-18T11:43:53.481Z,0.51
2016-11-18T11:44:53.627Z,0.35
2016-11-18T11:45:53.461Z,0.45
2016-11-18T11:46:53.417Z,0.31
2016-11-18T11:47:53.416Z,0.33
2016-11-18T11:48:53.398Z,0.51
2016-11-18T11:49:53.399Z,0.51
2016-11-18T11:50:53.354Z,0.68
2016-11-18T11:51:53.339Z,0.6
2016-11-18T11:52:53.354Z,0.57
2016-11-18T11:53:53.333Z,0.52
2016-11-18T11:54:53.291Z,0.49
2016-11-18T11:55:53.289Z,0.43
2016-11-18T11:56:53.271Z,0.28
2016-11-18T11:57:53.252Z,0.34
2016-11-18T11:58:53.235Z,0.33
2016-11-18T11:59:53.209Z,0.31
2016-11-18T12:00:53.206Z,0.33
2016-11-18T12:01:53.201Z,0.16
2016-11-18T12:02:53.182Z,0.12
2016-11-18T12:03:53.220Z,0.34
2016-11-18T12:04:53.141Z,0.45
2016-11-18T12:05:53.121Z,0.53
2016-11-18T12:06:53.116Z,0.35
2016-11-18T12:07:53.110Z,0.37
2016-11-18T12:08:53.086Z,0.56
2016-11-18T12:09:53.066Z,0.75
2016-11-18T12:10:53.054Z,0.92
2016-11-18T12:11:53.015Z,1.17
2016-11-18T12:12:52.999Z,1.1
2016-11-18T12:13:53.014Z,0.82
2016-11-18T12:14:52.964Z,0.78
2016-11-18T12:15:52.984Z,0.9
2016-11-18T12:16:52.956Z,0.96
2016-11-18T12:17:52.934Z,0.64
2016-11-18T12:18:52.925Z,0.63
2016-11-18T12:19:52.901Z,0.78
2016-11-18T12:20:52.890Z,0.37
2016-11-18T12:21:52.868Z,0.48
2016-11-18T12:22:52.852Z,0.67
2016-11-18T12:23:52.835Z,0.31
2016-11-18T12:24:52.843Z,0.38
2016-11-18T12:25:52.828Z,0.37
2016-11-18T12:26:52.810Z,0.3
2016-11-18T12:27:52.770Z,0.12
2016-11-18T12:28:52.761Z,0.16
2016-11-18T12:29:52.721Z,0.23
2016-11-18T12:30:52.718Z,0.34
2016-11-18T12:31:52.725Z,0.3
2016-11-18T12:32:52.695Z,0.3
2016-11-18T12:33:52.671Z,0.3
2016-11-18T12:34:52.667Z,0.19
2016-11-18T12:35:52.644Z,0.28
2016-11-18T12:36:52.621Z,0.35
2016-11-18T12:37:52.623Z,0.4
2016-11-18T12:38:52.599Z,0.37
2016-11-18T12:39:52.579Z,0.52
2016-11-18T12:40:52.570Z,0.59
2016-11-18T12:41:52.536Z,0.49
2016-11-18T12:42:52.557Z,0.3
2016-11-18T12:43:52.503Z,0.4
2016-11-18T12:44:52.490Z,0.56
2016-11-18T12:45:52.482Z,0.43
2016-11-18T12:46:52.459Z,0.68
2016-11-18T12:47:52.458Z,0.53
2016-11-18T12:48:52.412Z,0.38
2016-11-18T12:49:52.412Z,0.49
2016-11-18T12:50:52.400Z,0.53
2016-11-18T12:51:52.379Z,0.62
2016-11-18T12:52:52.361Z,0.67
2016-11-18T12:53:52.636Z,0.44
2016-11-18T12:54:52.335Z,0.67
2016-11-18T12:55:52.304Z,0.75
2016-11-18T12:56:52.281Z,1.08
2016-11-18T12:57:52.258Z,1.44
2016-11-18T12:58:52.252Z,1.65
2016-11-18T12:59:52.246Z,1.32
2016-11-18T13:00:52.237Z,1.31
2016-11-18T13:01:52.209Z,1.25
2016-11-18T13:02:52.178Z,1.29
2016-11-18T13:03:52.186Z,1.17
2016-11-18T13:04:52.160Z,1.11
2016-11-18T13:05:52.144Z,0.59
2016-11-18T13:06:52.134Z,0.35
2016-11-18T13:07:52.313Z,0.72
2016-11-18T13:08:52.095Z,0.8
2016-11-18T13:09:52.100Z,0.95